Time;durP1;ratioP1;P1;durP2;ratioP2;P2;SDS_P1;SDS_P2;PMS_P1;PMS_P2;Temp;Humidity;BMP_temperature;BMP_pressure;BME280_temperature;BME280_humidity;BME280_pressure;Samples;Min_cycle;Max_cycle;Signal;HPM_P1;HPM_P2
2022/07/03 00:00:32;;;;;;;14.07;13.10;;;18.30;99.90;;;;;;4973719;28;20456;-74
2022/07/03 00:02:59;;;;;;;15.00;14.20;;;18.30;99.90;;;;;;4973088;28;20537;-74
2022/07/03 00:05:26;;;;;;;14.37;13.67;;;18.30;99.90;;;;;;4973035;28;20456;-74
2022/07/03 00:07:53;;;;;;;14.03;13.23;;;18.30;99.90;;;;;;4973139;28;20456;-75
2022/07/03 00:10:19;;;;;;;15.10;14.27;;;18.20;99.90;;;;;;4973234;28;20514;-74
2022/07/03 00:12:46;;;;;;;15.70;14.43;;;18.20;99.90;;;;;;4972954;28;20928;-75
2022/07/03 00:15:15;;;;;;;13.90;13.10;;;18.10;99.90;;;;;;4973297;28;20478;-75
2022/07/03 00:17:42;;;;;;;13.77;13.07;;;18.10;99.90;;;;;;4973000;28;20455;-75
2022/07/03 00:20:10;;;;;;;13.60;12.90;;;18.00;99.90;;;;;;4972909;28;20958;-75
2022/07/03 00:22:41;;;;;;;14.10;13.40;;;18.00;99.90;;;;;;4972499;28;21009;-74
2022/07/03 00:25:11;;;;;;;14.70;13.50;;;18.00;99.90;;;;;;4973039;28;20900;-74
2022/07/03 00:27:39;;;;;;;14.30;13.60;;;18.00;99.90;;;;;;4972998;28;20459;-75
2022/07/03 00:30:08;;;;;;;14.13;13.50;;;18.00;99.90;;;;;;4972780;28;20458;-75
2022/07/03 00:32:39;;;;;;;14.00;13.30;;;18.00;99.90;;;;;;4973079;28;20454;-75
2022/07/03 00:35:08;;;;;;;14.73;13.93;;;18.00;99.90;;;;;;4972608;28;20950;-75
2022/07/03 00:37:35;;;;;;;14.67;13.97;;;17.90;99.90;;;;;;4972716;28;20467;-74
2022/07/03 00:40:01;;;;;;;14.90;13.90;;;18.00;99.90;;;;;;4972402;28;20989;-75
2022/07/03 00:42:29;;;;;;;14.70;13.60;;;17.90;99.90;;;;;;4972357;28;20513;-75
2022/07/03 00:44:58;;;;;;;14.90;14.17;;;18.00;99.90;;;;;;4972584;28;20455;-74
2022/07/03 00:47:26;;;;;;;15.23;14.43;;;18.00;99.90;;;;;;4972656;28;20463;-75
2022/07/03 00:49:57;;;;;;;14.53;13.87;;;18.00;99.90;;;;;;4972458;28;20451;-75
2022/07/03 00:52:24;;;;;;;13.90;13.10;;;18.00;99.90;;;;;;4972495;28;20792;-75
2022/07/03 00:54:53;;;;;;;14.47;13.63;;;17.90;99.90;;;;;;4972451;28;20952;-74
2022/07/03 00:57:21;;;;;;;13.80;13.20;;;17.90;99.90;;;;;;4972680;28;20452;-74
2022/07/03 00:59:49;;;;;;;14.63;13.73;;;17.80;99.90;;;;;;4972300;28;20465;-74
2022/07/03 01:02:26;;;;;;;14.20;13.50;;;17.80;99.90;;;;;;4972449;28;20846;-74
2022/07/03 01:05:02;;;;;;;14.20;13.50;;;17.70;99.90;;;;;;4972220;28;20466;-76
2022/07/03 01:07:39;;;;;;;14.30;13.60;;;17.70;99.90;;;;;;4972399;28;20502;-74
2022/07/03 01:10:10;;;;;;;14.63;13.93;;;17.70;99.90;;;;;;4972652;28;20546;-74
2022/07/03 01:12:51;;;;;;;14.80;13.83;;;17.60;99.90;;;;;;4972216;28;20502;-75
2022/07/03 01:15:27;;;;;;;13.83;13.23;;;17.60;99.90;;;;;;4972304;28;20969;-76
2022/07/03 01:18:03;;;;;;;15.00;14.23;;;17.60;99.90;;;;;;4971935;28;20459;-73
2022/07/03 01:20:35;;;;;;;14.60;13.80;;;17.50;99.90;;;;;;4972297;28;20937;-74
2022/07/03 01:23:02;;;;;;;14.57;13.50;;;17.50;99.90;;;;;;4972129;28;20558;-75
2022/07/03 01:25:40;;;;;;;14.27;13.57;;;17.40;99.90;;;;;;4971999;28;20464;-74
2022/07/03 01:28:11;;;;;;;14.80;14.10;;;17.40;99.90;;;;;;4972067;28;20950;-75
2022/07/03 01:30:40;;;;;;;14.90;14.20;;;17.30;99.90;;;;;;4971856;28;20456;-74
2022/07/03 01:33:09;;;;;;;16.53;15.00;;;17.20;99.90;;;;;;4972038;28;20965;-74
2022/07/03 01:35:37;;;;;;;15.53;14.27;;;17.20;99.90;;;;;;4972290;28;20806;-74
2022/07/03 01:38:07;;;;;;;15.00;14.10;;;17.20;99.90;;;;;;4972050;28;20459;-74
2022/07/03 01:40:37;;;;;;;15.20;14.30;;;17.20;99.90;;;;;;4971998;28;20483;-75
2022/07/03 01:43:06;;;;;;;14.33;13.73;;;17.20;99.90;;;;;;4972125;28;20498;-75
2022/07/03 01:45:42;;;;;;;15.13;14.40;;;17.20;99.90;;;;;;4971957;28;20464;-75
2022/07/03 01:48:10;;;;;;;14.30;13.70;;;17.10;99.90;;;;;;4971979;28;20456;-74
2022/07/03 01:50:38;;;;;;;15.20;14.27;;;17.00;99.90;;;;;;4975324;28;20463;-76
2022/07/03 01:53:08;;;;;;;13.87;13.27;;;17.00;99.90;;;;;;4975792;28;20981;-75
2022/07/03 01:55:39;;;;;;;15.57;14.53;;;17.00;99.90;;;;;;4975776;28;20455;-75
2022/07/03 01:58:06;;;;;;;14.70;14.00;;;17.00;99.90;;;;;;4975341;28;20452;-75
2022/07/03 02:00:41;;;;;;;15.50;14.50;;;17.00;99.90;;;;;;4975871;28;20451;-76
2022/07/03 02:03:08;;;;;;;14.10;13.37;;;17.00;99.90;;;;;;4975398;28;21070;-75
2022/07/03 02:05:43;;;;;;;14.47;13.77;;;17.00;99.90;;;;;;4975739;28;20463;-75
2022/07/03 02:08:25;;;;;;;15.53;14.20;;;17.00;99.90;;;;;;4975313;28;20945;-75
2022/07/03 02:11:10;;;;;;;14.83;14.13;;;17.00;99.90;;;;;;4975231;28;20455;-76
2022/07/03 02:13:45;;;;;;;14.17;13.47;;;16.90;99.90;;;;;;4975405;28;20458;-75
2022/07/03 02:16:18;;;;;;;16.27;15.37;;;16.90;99.90;;;;;;4975268;28;20534;-73
2022/07/03 02:18:55;;;;;;;14.80;14.10;;;16.80;99.90;;;;;;4975158;28;20456;-76
2022/07/03 02:21:25;;;;;;;14.90;14.00;;;16.90;99.90;;;;;;4974826;28;20969;-75
2022/07/03 02:23:56;;;;;;;13.90;13.30;;;16.90;99.90;;;;;;4975081;28;20491;-74
2022/07/03 02:26:30;;;;;;;14.80;14.10;;;16.80;99.90;;;;;;4974889;28;20455;-74
2022/07/03 02:29:02;;;;;;;14.20;13.50;;;16.80;99.90;;;;;;4974883;28;20949;-75
2022/07/03 02:31:34;;;;;;;14.17;13.53;;;16.80;99.90;;;;;;4975014;28;20447;-75
2022/07/03 02:34:03;;;;;;;14.80;14.10;;;16.80;99.90;;;;;;4975047;28;20845;-76
2022/07/03 02:36:32;;;;;;;15.17;14.47;;;16.80;99.90;;;;;;4975119;28;20447;-76
2022/07/03 02:39:00;;;;;;;15.37;14.57;;;16.70;99.90;;;;;;4974517;28;20985;-76
2022/07/03 02:41:40;;;;;;;14.03;13.33;;;16.70;99.90;;;;;;4974436;28;20561;-75
2022/07/03 02:44:17;;;;;;;14.83;14.10;;;16.70;99.90;;;;;;4974822;28;20890;-75
2022/07/03 02:46:53;;;;;;;14.93;14.23;;;16.70;99.90;;;;;;4975109;28;20859;-75
2022/07/03 02:49:32;;;;;;;14.27;13.67;;;16.60;99.90;;;;;;4974947;28;20482;-75
2022/07/03 02:52:09;;;;;;;14.50;13.77;;;16.60;99.90;;;;;;4974478;28;20459;-74
2022/07/03 02:54:44;;;;;;;15.80;15.10;;;16.50;99.90;;;;;;4974871;28;20435;-75
2022/07/03 02:57:15;;;;;;;15.10;14.30;;;16.50;99.90;;;;;;4974367;28;20448;-74
2022/07/03 02:59:52;;;;;;;14.17;13.57;;;16.60;99.90;;;;;;4974062;28;20540;-74
2022/07/03 03:02:37;;;;;;;17.53;16.00;;;16.50;99.90;;;;;;4974146;28;20480;-74
2022/07/03 03:05:09;;;;;;;15.67;14.77;;;16.50;99.90;;;;;;4974583;28;20509;-75
2022/07/03 03:07:44;;;;;;;14.33;13.63;;;16.40;99.90;;;;;;4974435;28;20506;-74
2022/07/03 03:10:13;;;;;;;14.03;13.40;;;16.40;99.90;;;;;;4974111;28;20967;-74
2022/07/03 03:12:45;;;;;;;15.43;14.63;;;16.40;99.90;;;;;;4974204;28;20864;-74
2022/07/03 03:15:13;;;;;;;15.50;14.70;;;16.40;99.90;;;;;;4974186;28;20459;-74
2022/07/03 03:17:43;;;;;;;16.10;15.10;;;16.30;99.90;;;;;;4974219;28;20456;-74
2022/07/03 03:20:15;;;;;;;16.20;15.07;;;16.30;99.90;;;;;;4973967;28;20938;-74
2022/07/03 03:23:00;;;;;;;15.90;15.10;;;16.20;99.90;;;;;;4973982;28;21075;-74
2022/07/03 03:25:27;;;;;;;16.10;15.20;;;16.20;99.90;;;;;;4973826;28;20538;-74
2022/07/03 03:27:55;;;;;;;15.17;14.50;;;16.20;99.90;;;;;;4973849;28;20518;-75
2022/07/03 03:30:22;;;;;;;15.37;14.67;;;16.20;99.90;;;;;;4973765;28;20510;-74
2022/07/03 03:32:49;;;;;;;15.03;14.33;;;16.30;99.90;;;;;;4974298;28;20448;-74
2022/07/03 03:35:15;;;;;;;14.83;14.07;;;16.30;99.90;;;;;;4973908;28;20451;-74
2022/07/03 03:37:42;;;;;;;15.00;14.30;;;16.30;99.90;;;;;;4973627;28;20456;-75
2022/07/03 03:40:11;;;;;;;15.33;14.60;;;16.30;99.90;;;;;;4973241;28;20550;-74
2022/07/03 03:42:38;;;;;;;14.70;14.00;;;16.30;99.90;;;;;;4973559;28;20527;-74
2022/07/03 03:45:07;;;;;;;15.40;14.67;;;16.30;99.90;;;;;;4973707;28;20455;-73
2022/07/03 03:47:34;;;;;;;14.70;14.10;;;16.30;99.90;;;;;;4973867;28;20538;-74
2022/07/03 03:50:01;;;;;;;15.10;14.40;;;16.30;99.90;;;;;;4973400;28;20464;-72
2022/07/03 03:52:29;;;;;;;15.50;14.67;;;16.30;99.90;;;;;;4973556;28;20794;-73
2022/07/03 03:54:56;;;;;;;14.83;14.13;;;16.30;99.90;;;;;;4973077;28;20451;-73
2022/07/03 03:57:24;;;;;;;15.10;14.40;;;16.30;99.90;;;;;;4973383;28;20460;-73
2022/07/03 03:59:51;;;;;;;15.70;14.70;;;16.30;99.90;;;;;;4973319;28;20514;-73
2022/07/03 04:02:19;;;;;;;14.70;13.90;;;16.30;99.90;;;;;;4973467;28;20439;-73
2022/07/03 04:04:46;;;;;;;14.30;13.70;;;16.30;99.90;;;;;;4973211;28;20502;-73
2022/07/03 04:07:13;;;;;;;14.90;14.13;;;16.30;99.90;;;;;;4973027;28;20459;-74
2022/07/03 04:09:39;;;;;;;14.73;14.10;;;16.30;99.90;;;;;;4972907;28;20463;-74
2022/07/03 04:12:07;;;;;;;15.03;14.30;;;16.30;99.90;;;;;;4973141;28;20524;-73
2022/07/03 04:14:33;;;;;;;14.80;14.10;;;16.30;99.90;;;;;;4973671;28;20456;-74
2022/07/03 04:17:00;;;;;;;14.83;14.13;;;16.30;99.90;;;;;;4973021;28;20451;-75
2022/07/03 04:19:28;;;;;;;15.10;14.30;;;16.40;99.90;;;;;;4972939;28;20456;-74
2022/07/03 04:21:55;;;;;;;14.67;14.07;;;16.40;99.90;;;;;;4972898;28;20530;-75
2022/07/03 04:24:21;;;;;;;15.17;14.27;;;16.40;99.90;;;;;;4972745;28;20620;-75
2022/07/03 04:26:48;;;;;;;14.13;13.53;;;16.40;99.90;;;;;;4972926;28;20538;-75
2022/07/03 04:29:15;;;;;;;13.80;13.10;;;16.80;99.90;;;;;;4972951;28;20611;-75
2022/07/03 04:31:42;;;;;;;14.30;13.53;;;17.30;99.90;;;;;;4972945;28;20654;-74
2022/07/03 04:34:08;;;;;;;13.17;12.60;;;17.60;99.90;;;;;;4972722;28;20525;-69
2022/07/03 04:36:36;;;;;;;14.67;13.90;;;18.00;99.90;;;;;;4972716;28;20482;-71
2022/07/03 04:39:03;;;;;;;13.50;12.90;;;18.30;99.90;;;;;;4972934;28;20475;-71
2022/07/03 04:41:30;;;;;;;14.33;13.30;;;18.60;99.90;;;;;;4972313;28;20484;-69
2022/07/03 04:43:56;;;;;;;14.43;13.73;;;18.80;99.90;;;;;;4972308;28;21048;-68
2022/07/03 04:46:23;;;;;;;14.90;13.77;;;19.10;99.90;;;;;;4972170;28;20460;-70
2022/07/03 04:48:50;;;;;;;14.57;13.70;;;19.40;99.90;;;;;;4972435;28;20493;-70
2022/07/03 04:51:16;;;;;;;14.43;13.83;;;19.60;99.90;;;;;;4972727;28;20500;-69
2022/07/03 04:53:44;;;;;;;14.00;13.20;;;19.70;99.90;;;;;;4972309;28;20858;-69
2022/07/03 04:56:11;;;;;;;13.47;12.77;;;19.80;99.90;;;;;;4971907;28;20459;-69
2022/07/03 04:58:38;;;;;;;13.87;13.17;;;20.00;99.90;;;;;;4972402;28;20456;-70
2022/07/03 05:01:04;;;;;;;13.97;13.07;;;20.00;99.90;;;;;;4972468;28;20451;-71
2022/07/03 05:03:31;;;;;;;13.23;12.63;;;20.20;99.90;;;;;;4972281;28;20494;-71
2022/07/03 05:05:59;;;;;;;15.10;14.00;;;20.30;99.90;;;;;;4972431;28;20451;-71
2022/07/03 05:08:26;;;;;;;13.10;12.30;;;20.50;99.90;;;;;;4972146;28;20526;-71
2022/07/03 05:10:54;;;;;;;13.07;12.37;;;20.60;99.90;;;;;;4971937;28;20458;-71
2022/07/03 05:13:20;;;;;;;13.20;12.50;;;20.70;99.90;;;;;;4972134;28;20958;-72
2022/07/03 05:15:47;;;;;;;12.70;12.10;;;20.90;99.90;;;;;;4972374;28;20455;-71
2022/07/03 05:18:14;;;;;;;12.90;12.40;;;21.10;99.90;;;;;;4972023;28;20455;-71
2022/07/03 05:20:41;;;;;;;13.37;12.37;;;21.20;99.90;;;;;;4971817;28;20451;-70
2022/07/03 05:23:07;;;;;;;12.40;11.80;;;21.30;99.90;;;;;;4972157;28;20474;-69
2022/07/03 05:25:34;;;;;;;12.70;12.20;;;21.30;99.90;;;;;;4976009;28;20459;-70
2022/07/03 05:28:03;;;;;;;13.00;12.50;;;21.40;99.90;;;;;;4976128;28;20849;-70
2022/07/03 05:30:29;;;;;;;12.40;11.90;;;21.50;99.90;;;;;;4976002;28;20483;-71
2022/07/03 05:32:56;;;;;;;12.73;12.13;;;21.50;99.90;;;;;;4975903;28;20452;-70
2022/07/03 05:35:23;;;;;;;12.40;11.80;;;21.50;99.90;;;;;;4975695;28;20454;-71
2022/07/03 05:37:49;;;;;;;12.20;11.70;;;21.70;99.90;;;;;;4976011;28;20498;-70
2022/07/03 05:40:17;;;;;;;12.90;12.30;;;21.60;99.90;;;;;;4975366;28;20978;-72
2022/07/03 05:42:43;;;;;;;13.17;12.37;;;21.80;99.90;;;;;;4975802;28;20455;-71
2022/07/03 05:45:12;;;;;;;13.77;12.67;;;22.10;99.90;;;;;;4975757;28;20494;-70
2022/07/03 05:47:38;;;;;;;12.50;11.90;;;22.20;99.90;;;;;;4975530;28;20940;-70
2022/07/03 05:50:06;;;;;;;12.40;11.90;;;22.40;99.90;;;;;;4975902;28;20452;-70
2022/07/03 05:52:32;;;;;;;12.17;11.67;;;22.60;99.90;;;;;;4975727;28;20957;-69
2022/07/03 05:54:59;;;;;;;13.40;12.80;;;22.60;99.90;;;;;;4975238;28;20451;-69
2022/07/03 05:57:26;;;;;;;12.20;11.80;;;22.80;99.90;;;;;;4975344;28;20721;-69
2022/07/03 05:59:52;;;;;;;12.47;12.07;;;22.80;99.90;;;;;;4975546;28;20506;-70
2022/07/03 06:02:20;;;;;;;12.07;11.57;;;23.10;99.90;;;;;;4975543;28;20498;-71
2022/07/03 06:04:47;;;;;;;12.60;12.10;;;23.30;99.90;;;;;;4975198;28;20839;-70
2022/07/03 06:07:15;;;;;;;12.87;12.27;;;23.40;99.90;;;;;;4975266;28;20957;-70
2022/07/03 06:09:42;;;;;;;11.70;11.30;;;23.40;99.90;;;;;;4975114;28;20946;-71
2022/07/03 06:12:09;;;;;;;12.53;11.83;;;23.50;99.90;;;;;;4975127;28;20941;-70
2022/07/03 06:14:36;;;;;;;12.57;12.10;;;23.60;99.90;;;;;;4975281;28;20869;-70
2022/07/03 06:17:03;;;;;;;12.40;12.00;;;24.00;99.90;;;;;;4975477;28;20447;-70
2022/07/03 06:19:31;;;;;;;12.00;11.50;;;24.30;99.90;;;;;;4975214;28;20486;-70
2022/07/03 06:21:57;;;;;;;12.30;11.80;;;24.30;99.90;;;;;;4975100;28;20458;-70
2022/07/03 06:24:24;;;;;;;12.20;11.60;;;24.30;99.90;;;;;;4974547;28;20522;-70
2022/07/03 06:26:51;;;;;;;12.60;12.10;;;24.50;99.90;;;;;;4974956;28;20451;-70
2022/07/03 06:29:17;;;;;;;12.50;11.90;;;24.40;99.90;;;;;;4975129;28;20456;-70
2022/07/03 06:31:44;;;;;;;12.67;12.17;;;24.10;99.90;;;;;;4974789;28;20463;-69
2022/07/03 06:34:11;;;;;;;12.10;11.60;;;24.00;99.90;;;;;;4974776;28;20454;-69
2022/07/03 06:36:39;;;;;;;12.10;11.70;;;24.10;99.90;;;;;;4974537;28;20492;-69
2022/07/03 06:39:05;;;;;;;12.27;11.77;;;24.30;99.90;;;;;;4974918;28;20467;-69
2022/07/03 06:41:32;;;;;;;12.30;11.80;;;24.50;99.90;;;;;;4974485;28;20479;-69
2022/07/03 06:43:59;;;;;;;12.47;11.87;;;24.70;99.90;;;;;;4974614;28;20487;-69
2022/07/03 06:46:25;;;;;;;12.37;11.60;;;24.90;99.90;;;;;;4974351;28;20479;-69
2022/07/03 06:48:52;;;;;;;12.47;11.97;;;25.30;99.90;;;;;;4974419;28;20460;-70
2022/07/03 06:51:19;;;;;;;12.37;11.77;;;25.70;99.90;;;;;;4974802;28;21041;-70
2022/07/03 06:53:46;;;;;;;12.50;11.80;;;25.80;99.80;;;;;;4974843;28;21055;-70
2022/07/03 06:56:13;;;;;;;13.00;12.40;;;26.20;99.20;;;;;;4974507;28;20452;-70
2022/07/03 06:58:40;;;;;;;12.80;12.23;;;26.30;99.00;;;;;;4974177;28;20452;-70
2022/07/03 07:01:06;;;;;;;12.07;11.67;;;26.20;98.90;;;;;;4974153;28;20811;-70
2022/07/03 07:03:33;;;;;;;12.20;11.70;;;26.40;98.40;;;;;;4974605;28;20462;-70
2022/07/03 07:06:00;;;;;;;12.00;11.50;;;26.50;98.10;;;;;;4974358;28;20529;-70
2022/07/03 07:08:26;;;;;;;11.90;11.40;;;26.50;98.40;;;;;;4974282;28;20464;-69
2022/07/03 07:10:55;;;;;;;12.10;11.60;;;27.00;97.50;;;;;;4973915;28;20506;-69
2022/07/03 07:13:21;;;;;;;11.50;11.10;;;27.20;97.10;;;;;;4974111;28;20456;-69
2022/07/03 07:15:48;;;;;;;12.17;11.50;;;27.40;96.60;;;;;;4974344;28;20448;-69
2022/07/03 07:18:15;;;;;;;12.47;11.97;;;27.20;96.90;;;;;;4974165;28;20478;-69
2022/07/03 07:20:41;;;;;;;12.10;11.60;;;27.00;97.50;;;;;;4973723;28;20600;-70
2022/07/03 07:23:08;;;;;;;12.67;12.10;;;26.90;97.60;;;;;;4973697;28;20479;-72
2022/07/03 07:25:35;;;;;;;12.47;11.97;;;27.10;97.40;;;;;;4973743;28;20494;-71
2022/07/03 07:28:03;;;;;;;11.80;11.40;;;27.30;96.80;;;;;;4973608;28;20966;-69
2022/07/03 07:30:29;;;;;;;12.30;11.80;;;27.50;96.30;;;;;;4974017;28;20459;-70
2022/07/03 07:32:56;;;;;;;12.10;11.60;;;27.50;96.50;;;;;;4973844;28;20526;-71
2022/07/03 07:35:23;;;;;;;10.97;10.57;;;27.50;96.10;;;;;;4973597;28;20506;-70
2022/07/03 07:37:49;;;;;;;11.87;11.37;;;28.10;95.20;;;;;;4973978;28;20448;-69
2022/07/03 07:40:16;;;;;;;11.97;11.57;;;28.30;95.00;;;;;;4973376;28;20834;-70
2022/07/03 07:42:43;;;;;;;11.90;11.40;;;28.60;94.50;;;;;;4973804;28;20817;-75
2022/07/03 07:45:11;;;;;;;13.83;12.83;;;28.80;93.90;;;;;;4973683;28;20896;-76
2022/07/03 07:47:38;;;;;;;11.60;11.10;;;29.10;92.90;;;;;;4972766;28;20463;-82
2022/07/03 07:50:06;;;;;;;11.33;10.93;;;29.20;92.50;;;;;;4974892;28;20456;-79
2022/07/03 07:52:33;;;;;;;12.03;11.60;;;29.90;91.10;;;;;;4971376;28;21072;-74
2022/07/03 21:18:33;;;;;;;11.47;10.97;;;23.00;98.30;;;;;;4942042;28;21040;-73
2022/07/03 21:21:00;;;;;;;12.37;11.67;;;23.10;98.40;;;;;;4952324;29;20464;-73
2022/07/03 21:23:26;;;;;;;10.57;10.07;;;23.10;98.70;;;;;;4951610;28;21603;-73
2022/07/03 21:25:53;;;;;;;11.77;11.10;;;23.00;98.70;;;;;;4952209;29;20488;-72
2022/07/03 21:28:20;;;;;;;11.87;11.30;;;23.00;99.00;;;;;;4952237;29;20452;-73
2022/07/03 21:30:46;;;;;;;12.93;12.03;;;22.90;99.20;;;;;;4952239;29;20807;-73
2022/07/03 21:33:13;;;;;;;11.00;10.40;;;22.90;99.30;;;;;;4952005;29;20467;-73
2022/07/03 21:35:41;;;;;;;10.90;10.40;;;22.80;99.30;;;;;;4952196;29;21051;-72
2022/07/03 21:38:08;;;;;;;12.43;11.47;;;22.80;99.50;;;;;;4952352;29;20471;-72
2022/07/03 21:40:35;;;;;;;12.40;11.70;;;22.70;99.30;;;;;;4952089;29;20487;-72
2022/07/03 21:43:02;;;;;;;12.47;11.80;;;22.70;99.60;;;;;;4952264;29;20456;-73
2022/07/03 21:45:28;;;;;;;11.93;11.37;;;22.60;99.80;;;;;;4951976;29;20492;-73
2022/07/03 21:47:56;;;;;;;12.63;12.03;;;22.60;99.90;;;;;;4951981;29;20950;-73
2022/07/03 21:50:23;;;;;;;13.60;12.80;;;22.50;99.90;;;;;;4952083;29;20543;-72
2022/07/03 21:52:51;;;;;;;12.80;12.10;;;22.40;99.90;;;;;;4952086;29;20455;-73
2022/07/03 21:55:18;;;;;;;13.10;12.20;;;22.40;99.90;;;;;;4952080;29;20465;-73
2022/07/03 21:57:45;;;;;;;13.90;13.10;;;22.30;99.90;;;;;;4952056;29;20489;-74
2022/07/03 22:00:13;;;;;;;12.73;12.13;;;22.20;99.90;;;;;;4952165;29;20455;-72
2022/07/03 22:02:40;;;;;;;13.70;12.90;;;22.10;99.90;;;;;;4951710;29;20515;-73
2022/07/03 22:05:08;;;;;;;14.00;13.20;;;22.10;99.90;;;;;;4952107;28;20862;-73
2022/07/03 22:07:36;;;;;;;14.43;13.13;;;22.10;99.90;;;;;;4954706;29;20459;-73
2022/07/03 22:10:05;;;;;;;13.40;12.67;;;22.10;99.90;;;;;;4954694;29;20543;-73
2022/07/03 22:12:34;;;;;;;13.13;12.43;;;22.10;99.90;;;;;;4955224;29;20456;-73
2022/07/03 22:15:03;;;;;;;12.97;12.10;;;22.00;99.90;;;;;;4955280;29;20452;-73
2022/07/03 22:17:31;;;;;;;14.10;12.90;;;22.00;99.90;;;;;;4971406;28;20687;-72
2022/07/03 22:19:57;;;;;;;12.13;11.50;;;22.00;99.90;;;;;;4974507;28;21450;-73
2022/07/03 22:22:24;;;;;;;13.57;12.60;;;21.90;99.90;;;;;;4974444;28;20813;-72
2022/07/03 22:24:51;;;;;;;13.30;12.70;;;21.90;99.90;;;;;;4973711;28;20490;-73
2022/07/03 22:27:20;;;;;;;13.27;12.60;;;21.80;99.90;;;;;;4974070;28;20459;-74
2022/07/03 22:29:46;;;;;;;13.80;12.90;;;21.80;99.90;;;;;;4974421;28;20448;-72
2022/07/03 22:32:15;;;;;;;13.43;12.70;;;21.80;99.90;;;;;;4974143;28;20455;-72
2022/07/03 22:34:41;;;;;;;13.13;12.13;;;21.80;99.90;;;;;;4973956;28;20456;-71
2022/07/03 22:37:09;;;;;;;13.70;12.80;;;21.80;99.90;;;;;;4974075;28;20447;-71
2022/07/03 22:39:36;;;;;;;13.90;13.10;;;21.70;99.90;;;;;;4974264;28;20487;-71
2022/07/03 22:42:03;;;;;;;13.63;12.70;;;21.70;99.90;;;;;;4974055;28;20462;-72
2022/07/03 22:44:31;;;;;;;13.83;12.90;;;21.70;99.90;;;;;;4974023;28;20455;-73
2022/07/03 22:46:58;;;;;;;14.93;13.67;;;21.60;99.90;;;;;;4973580;28;20522;-72
2022/07/03 22:49:25;;;;;;;14.57;13.57;;;21.60;99.90;;;;;;4973875;28;20455;-72
2022/07/03 22:51:51;;;;;;;15.03;13.80;;;21.50;99.90;;;;;;4974168;28;20451;-71
2022/07/03 22:54:18;;;;;;;13.47;12.80;;;21.50;99.90;;;;;;4973909;28;20937;-72
2022/07/03 22:56:46;;;;;;;14.13;13.23;;;21.50;99.90;;;;;;4973765;28;20448;-71
2022/07/03 22:59:13;;;;;;;14.70;13.70;;;21.50;99.90;;;;;;4973637;28;20470;-72
2022/07/03 23:01:42;;;;;;;14.70;13.60;;;21.50;99.90;;;;;;4973390;28;20482;-72
2022/07/03 23:04:09;;;;;;;13.30;12.50;;;21.50;99.90;;;;;;4973819;28;20487;-71
2022/07/03 23:06:37;;;;;;;13.50;12.60;;;21.50;99.90;;;;;;4973779;28;20515;-71
2022/07/03 23:09:07;;;;;;;12.90;11.80;;;21.50;99.90;;;;;;4973848;28;20459;-72
2022/07/03 23:11:33;;;;;;;13.40;12.80;;;21.50;99.90;;;;;;4973584;28;20459;-72
2022/07/03 23:14:01;;;;;;;12.43;11.83;;;21.50;99.90;;;;;;4973668;28;20459;-72
2022/07/03 23:16:28;;;;;;;13.37;12.77;;;21.50;99.90;;;;;;4973653;28;20475;-71
2022/07/03 23:18:56;;;;;;;13.50;12.70;;;21.50;99.90;;;;;;4972410;28;20981;-72
2022/07/03 23:21:23;;;;;;;11.90;11.27;;;21.50;99.90;;;;;;4973731;28;20463;-72
2022/07/03 23:23:50;;;;;;;12.90;12.00;;;21.60;99.90;;;;;;4973592;28;20456;-72
2022/07/03 23:26:16;;;;;;;12.27;11.53;;;21.60;99.90;;;;;;4972305;28;20941;-71
